sensor_id;sensor_type;location;lat;lon;timestamp;pressure;altitude;pressure_sealevel;temperature;humidity
18858;BME280;9558;50.178;8.370;2024-03-07T00:01:45;98883.34;;;1.75;100.00
18858;BME280;9558;50.178;8.370;2024-03-07T00:04:32;98881.59;;;1.75;100.00
18858;BME280;9558;50.178;8.370;2024-03-07T00:07:21;98884.25;;;1.73;100.00
18858;BME280;9558;50.178;8.370;2024-03-07T00:10:08;98884.34;;;1.72;100.00
18858;BME280;9558;50.178;8.370;2024-03-07T00:12:55;98883.63;;;1.70;100.00
18858;BME280;9558;50.178;8.370;2024-03-07T00:15:43;98894.75;;;1.69;100.00
18858;BME280;9558;50.178;8.370;2024-03-07T00:18:30;98896.47;;;1.68;100.00
18858;BME280;9558;50.178;8.370;2024-03-07T00:21:17;98894.88;;;1.67;100.00
18858;BME280;9558;50.178;8.370;2024-03-07T00:24:04;98891.69;;;1.64;100.00
18858;BME280;9558;50.178;8.370;2024-03-07T00:26:51;98894.97;;;1.66;100.00
18858;BME280;9558;50.178;8.370;2024-03-07T00:29:38;98895.16;;;1.63;100.00
18858;BME280;9558;50.178;8.370;2024-03-07T00:32:26;98896.19;;;1.60;100.00
18858;BME280;9558;50.178;8.370;2024-03-07T00:35:15;98891.16;;;1.59;100.00
18858;BME280;9558;50.178;8.370;2024-03-07T00:38:02;98893.00;;;1.57;100.00
18858;BME280;9558;50.178;8.370;2024-03-07T00:40:49;98896.47;;;1.55;100.00
18858;BME280;9558;50.178;8.370;2024-03-07T00:43:36;98890.44;;;1.57;100.00
18858;BME280;9558;50.178;8.370;2024-03-07T00:46:22;98892.28;;;1.54;100.00
18858;BME280;9558;50.178;8.370;2024-03-07T00:49:11;98889.00;;;1.52;100.00
18858;BME280;9558;50.178;8.370;2024-03-07T00:51:58;98888.41;;;1.49;100.00
18858;BME280;9558;50.178;8.370;2024-03-07T00:54:44;98884.81;;;1.51;100.00
18858;BME280;9558;50.178;8.370;2024-03-07T00:57:31;98885.03;;;1.48;100.00
18858;BME280;9558;50.178;8.370;2024-03-07T01:00:18;98885.13;;;1.47;100.00
18858;BME280;9558;50.178;8.370;2024-03-07T01:03:07;98878.47;;;1.44;100.00
18858;BME280;9558;50.178;8.370;2024-03-07T01:05:57;98878.47;;;1.44;100.00
18858;BME280;9558;50.178;8.370;2024-03-07T01:08:47;98876.88;;;1.43;100.00
18858;BME280;9558;50.178;8.370;2024-03-07T01:11:34;98871.03;;;1.41;100.00
18858;BME280;9558;50.178;8.370;2024-03-07T01:14:21;98876.66;;;1.33;100.00
18858;BME280;9558;50.178;8.370;2024-03-07T01:17:08;98878.47;;;1.31;100.00
18858;BME280;9558;50.178;8.370;2024-03-07T01:19:55;98880.09;;;1.32;100.00
18858;BME280;9558;50.178;8.370;2024-03-07T01:22:45;98876.00;;;1.30;100.00
18858;BME280;9558;50.178;8.370;2024-03-07T01:25:31;98867.66;;;1.28;100.00
18858;BME280;9558;50.178;8.370;2024-03-07T01:28:19;98872.75;;;1.28;100.00
18858;BME280;9558;50.178;8.370;2024-03-07T01:31:07;98870.19;;;1.28;100.00
18858;BME280;9558;50.178;8.370;2024-03-07T01:33:55;98870.19;;;1.28;100.00
18858;BME280;9558;50.178;8.370;2024-03-07T01:36:42;98873.47;;;1.30;100.00
18858;BME280;9558;50.178;8.370;2024-03-07T01:39:31;98869.47;;;1.26;100.00
18858;BME280;9558;50.178;8.370;2024-03-07T01:42:18;98857.66;;;1.25;100.00
18858;BME280;9558;50.178;8.370;2024-03-07T01:45:05;98864.56;;;1.23;100.00
18858;BME280;9558;50.178;8.370;2024-03-07T01:47:54;98869.66;;;1.23;100.00
18858;BME280;9558;50.178;8.370;2024-03-07T01:50:41;98871.50;;;1.20;100.00
18858;BME280;9558;50.178;8.370;2024-03-07T01:53:28;98864.78;;;1.19;100.00
18858;BME280;9558;50.178;8.370;2024-03-07T01:56:17;98862.97;;;1.22;100.00
18858;BME280;9558;50.178;8.370;2024-03-07T01:59:05;98862.97;;;1.22;100.00
18858;BME280;9558;50.178;8.370;2024-03-07T02:01:53;98862.75;;;1.25;100.00
18858;BME280;9558;50.178;8.370;2024-03-07T02:04:39;98856.91;;;1.23;100.00
18858;BME280;9558;50.178;8.370;2024-03-07T02:07:26;98857.22;;;1.18;100.00
18858;BME280;9558;50.178;8.370;2024-03-07T02:10:13;98856.41;;;1.17;100.00
18858;BME280;9558;50.178;8.370;2024-03-07T02:13:01;98862.31;;;1.18;100.00
18858;BME280;9558;50.178;8.370;2024-03-07T02:15:48;98854.78;;;1.16;100.00
18858;BME280;9558;50.178;8.370;2024-03-07T02:18:35;98852.03;;;1.19;100.00
18858;BME280;9558;50.178;8.370;2024-03-07T02:21:25;98853.78;;;1.19;100.00
18858;BME280;9558;50.178;8.370;2024-03-07T02:24:12;98856.41;;;1.17;100.00
18858;BME280;9558;50.178;8.370;2024-03-07T02:26:59;98850.59;;;1.15;100.00
18858;BME280;9558;50.178;8.370;2024-03-07T02:29:46;98846.38;;;1.14;100.00
18858;BME280;9558;50.178;8.370;2024-03-07T02:32:34;98847.03;;;1.18;100.00
18858;BME280;9558;50.178;8.370;2024-03-07T02:35:22;98841.13;;;1.17;100.00
18858;BME280;9558;50.178;8.370;2024-03-07T02:38:11;98840.72;;;1.24;100.00
18858;BME280;9558;50.178;8.370;2024-03-07T02:40:58;98838.38;;;1.20;100.00
18858;BME280;9558;50.178;8.370;2024-03-07T02:43:45;98840.91;;;1.20;100.00
18858;BME280;9558;50.178;8.370;2024-03-07T02:46:32;98844.19;;;1.23;100.00
18858;BME280;9558;50.178;8.370;2024-03-07T02:49:19;98840.91;;;1.20;100.00
18858;BME280;9558;50.178;8.370;2024-03-07T02:52:06;98839.06;;;1.23;100.00
18858;BME280;9558;50.178;8.370;2024-03-07T02:54:55;98839.47;;;1.16;100.00
18858;BME280;9558;50.178;8.370;2024-03-07T02:57:41;98830.19;;;1.15;100.00
18858;BME280;9558;50.178;8.370;2024-03-07T03:00:28;98829.69;;;1.10;100.00
18858;BME280;9558;50.178;8.370;2024-03-07T03:03:15;98824.59;;;1.10;100.00
18858;BME280;9558;50.178;8.370;2024-03-07T03:06:02;98829.16;;;1.05;100.00
18858;BME280;9558;50.178;8.370;2024-03-07T03:08:51;98831.69;;;1.05;100.00
18858;BME280;9558;50.178;8.370;2024-03-07T03:11:41;98828.50;;;1.01;100.00
18858;BME280;9558;50.178;8.370;2024-03-07T03:14:27;98827.00;;;0.99;100.00
18858;BME280;9558;50.178;8.370;2024-03-07T03:17:14;98822.81;;;0.98;100.00
18858;BME280;9558;50.178;8.370;2024-03-07T03:20:01;98826.16;;;0.98;100.00
18858;BME280;9558;50.178;8.370;2024-03-07T03:22:48;98829.44;;;1.00;100.00
18858;BME280;9558;50.178;8.370;2024-03-07T03:25:35;98819.63;;;0.94;100.00
18858;BME280;9558;50.178;8.370;2024-03-07T03:28:24;98820.47;;;0.95;100.00
18858;BME280;9558;50.178;8.370;2024-03-07T03:31:11;98819.72;;;0.93;100.00
18858;BME280;9558;50.178;8.370;2024-03-07T03:33:59;98825.03;;;0.90;100.00
18858;BME280;9558;50.178;8.370;2024-03-07T03:36:46;98819.94;;;0.90;100.00
18858;BME280;9558;50.178;8.370;2024-03-07T03:39:33;98820.03;;;0.88;100.00
18858;BME280;9558;50.178;8.370;2024-03-07T03:42:20;98819.22;;;0.88;100.00
18858;BME280;9558;50.178;8.370;2024-03-07T03:45:09;98817.56;;;0.86;100.00
18858;BME280;9558;50.178;8.370;2024-03-07T03:48:00;98813.19;;;0.89;100.00
18858;BME280;9558;50.178;8.370;2024-03-07T03:50:46;98811.94;;;0.81;100.00
18858;BME280;9558;50.178;8.370;2024-03-07T03:53:33;98819.59;;;0.81;100.00
18858;BME280;9558;50.178;8.370;2024-03-07T03:56:20;98813.59;;;0.82;100.00
18858;BME280;9558;50.178;8.370;2024-03-07T03:59:07;98810.25;;;0.82;100.00
18858;BME280;9558;50.178;8.370;2024-03-07T04:01:55;98812.78;;;0.82;100.00
18858;BME280;9558;50.178;8.370;2024-03-07T04:04:42;98809.59;;;0.78;100.00
18858;BME280;9558;50.178;8.370;2024-03-07T04:07:31;98809.31;;;0.83;100.00
18858;BME280;9558;50.178;8.370;2024-03-07T04:10:18;98810.44;;;0.79;100.00
18858;BME280;9558;50.178;8.370;2024-03-07T04:13:04;98802.88;;;0.77;100.00
18858;BME280;9558;50.178;8.370;2024-03-07T04:15:51;98807.16;;;0.77;100.00
18858;BME280;9558;50.178;8.370;2024-03-07T04:18:40;98810.59;;;0.76;100.00
18858;BME280;9558;50.178;8.370;2024-03-07T04:21:27;98811.53;;;0.75;100.00
18858;BME280;9558;50.178;8.370;2024-03-07T04:24:13;98804.09;;;0.72;100.00
18858;BME280;9558;50.178;8.370;2024-03-07T04:27:00;98807.44;;;0.72;100.00
18858;BME280;9558;50.178;8.370;2024-03-07T04:29:49;98808.34;;;0.71;100.00
18858;BME280;9558;50.178;8.370;2024-03-07T04:32:36;98808.34;;;0.71;100.00
18858;BME280;9558;50.178;8.370;2024-03-07T04:35:25;98803.47;;;0.68;100.00
18858;BME280;9558;50.178;8.370;2024-03-07T04:38:12;98805.72;;;0.73;100.00
18858;BME280;9558;50.178;8.370;2024-03-07T04:41:00;98804.19;;;0.70;100.00
18858;BME280;9558;50.178;8.370;2024-03-07T04:43:47;98799.47;;;0.64;100.00
18858;BME280;9558;50.178;8.370;2024-03-07T04:46:34;98808.75;;;0.65;100.00
18858;BME280;9558;50.178;8.370;2024-03-07T04:49:21;98806.50;;;0.60;100.00
18858;BME280;9558;50.178;8.370;2024-03-07T04:52:11;98806.84;;;0.54;100.00
18858;BME280;9558;50.178;8.370;2024-03-07T04:54:58;98807.31;;;0.61;100.00
18858;BME280;9558;50.178;8.370;2024-03-07T04:57:45;98805.41;;;0.50;100.00
18858;BME280;9558;50.178;8.370;2024-03-07T05:00:31;98803.69;;;0.50;100.00
18858;BME280;9558;50.178;8.370;2024-03-07T05:03:18;98801.34;;;0.47;100.00
18858;BME280;9558;50.178;8.370;2024-03-07T05:06:05;98809.69;;;0.49;100.00
18858;BME280;9558;50.178;8.370;2024-03-07T05:08:53;98805.69;;;0.45;100.00
18858;BME280;9558;50.178;8.370;2024-03-07T05:11:40;98801.34;;;0.47;100.00
18858;BME280;9558;50.178;8.370;2024-03-07T05:14:27;98802.44;;;0.43;100.00
18858;BME280;9558;50.178;8.370;2024-03-07T05:17:14;98799.91;;;0.43;100.00
18858;BME280;9558;50.178;8.370;2024-03-07T05:20:01;98797.66;;;0.39;100.00
18858;BME280;9558;50.178;8.370;2024-03-07T05:22:48;98804.44;;;0.38;100.00
18858;BME280;9558;50.178;8.370;2024-03-07T05:25:38;98791.72;;;0.38;100.00
18858;BME280;9558;50.178;8.370;2024-03-07T05:28:25;98801.91;;;0.38;100.00
18858;BME280;9558;50.178;8.370;2024-03-07T05:31:12;98805.53;;;0.34;100.00
18858;BME280;9558;50.178;8.370;2024-03-07T05:34:00;98800.66;;;0.31;100.00
18858;BME280;9558;50.178;8.370;2024-03-07T05:36:49;98804.09;;;0.30;100.00
18858;BME280;9558;50.178;8.370;2024-03-07T05:39:36;98808.28;;;0.31;100.00
18858;BME280;9558;50.178;8.370;2024-03-07T05:42:24;98809.94;;;0.32;100.00
18858;BME280;9558;50.178;8.370;2024-03-07T05:45:11;98804.84;;;0.32;100.00
18858;BME280;9558;50.178;8.370;2024-03-07T05:48:14;98802.00;;;0.37;100.00
18858;BME280;9558;50.178;8.370;2024-03-07T05:51:01;98800.09;;;0.40;100.00
18858;BME280;9558;50.178;8.370;2024-03-07T05:53:49;98804.78;;;0.46;100.00
18858;BME280;9558;50.178;8.370;2024-03-07T05:56:36;98791.97;;;0.48;100.00
18858;BME280;9558;50.178;8.370;2024-03-07T05:59:24;98800.84;;;0.55;100.00
18858;BME280;9558;50.178;8.370;2024-03-07T06:02:11;98807.31;;;0.61;100.00
18858;BME280;9558;50.178;8.370;2024-03-07T06:05:00;98807.19;;;0.62;100.00
18858;BME280;9558;50.178;8.370;2024-03-07T06:07:49;98796.91;;;0.64;100.00
18858;BME280;9558;50.178;8.370;2024-03-07T06:10:36;98800.91;;;0.68;100.00
18858;BME280;9558;50.178;8.370;2024-03-07T06:13:26;98802.66;;;0.67;100.00
18858;BME280;9558;50.178;8.370;2024-03-07T06:16:14;98801.72;;;0.68;100.00
18858;BME280;9558;50.178;8.370;2024-03-07T06:19:02;98800.00;;;0.69;100.00
18858;BME280;9558;50.178;8.370;2024-03-07T06:21:49;98801.81;;;0.67;100.00
18858;BME280;9558;50.178;8.370;2024-03-07T06:24:38;98797.66;;;0.66;100.00
18858;BME280;9558;50.178;8.370;2024-03-07T06:27:26;98794.91;;;0.69;100.00
18858;BME280;9558;50.178;8.370;2024-03-07T06:30:22;98801.66;;;0.70;100.00
18858;BME280;9558;50.178;8.370;2024-03-07T06:33:11;98792.88;;;0.74;100.00
18858;BME280;9558;50.178;8.370;2024-03-07T06:35:58;98793.81;;;0.73;100.00
18858;BME280;9558;50.178;8.370;2024-03-07T06:38:46;98790.84;;;0.79;100.00
18858;BME280;9558;50.178;8.370;2024-03-07T06:41:33;98789.84;;;0.82;100.00
18858;BME280;9558;50.178;8.370;2024-03-07T06:44:20;98793.94;;;0.84;100.00
18858;BME280;9558;50.178;8.370;2024-03-07T06:47:08;98787.72;;;0.89;100.00
18858;BME280;9558;50.178;8.370;2024-03-07T06:49:57;98796.91;;;0.91;100.00
18858;BME280;9558;50.178;8.370;2024-03-07T06:52:44;98791.31;;;0.99;100.00
18858;BME280;9558;50.178;8.370;2024-03-07T06:55:32;98791.63;;;1.07;100.00
18858;BME280;9558;50.178;8.370;2024-03-07T06:58:20;98791.75;;;1.18;100.00
18858;BME280;9558;50.178;8.370;2024-03-07T07:01:06;98791.56;;;1.22;100.00
18858;BME280;9558;50.178;8.370;2024-03-07T07:03:56;98794.03;;;1.36;100.00
18858;BME280;9558;50.178;8.370;2024-03-07T07:06:47;98787.81;;;1.40;100.00
18858;BME280;9558;50.178;8.370;2024-03-07T07:09:34;98793.31;;;1.47;100.00
18858;BME280;9558;50.178;8.370;2024-03-07T07:12:20;98794.41;;;1.55;100.00
18858;BME280;9558;50.178;8.370;2024-03-07T07:15:08;98790.44;;;1.64;100.00
18858;BME280;9558;50.178;8.370;2024-03-07T07:17:56;98790.75;;;1.72;100.00
18858;BME280;9558;50.178;8.370;2024-03-07T07:20:43;98781.53;;;1.83;100.00
18858;BME280;9558;50.178;8.370;2024-03-07T07:23:31;98786.63;;;1.96;100.00
18858;BME280;9558;50.178;8.370;2024-03-07T07:26:18;98781.44;;;1.97;100.00
18858;BME280;9558;50.178;8.370;2024-03-07T07:29:05;98784.56;;;2.14;100.00
18858;BME280;9558;50.178;8.370;2024-03-07T07:31:52;98784.81;;;2.35;100.00
18858;BME280;9558;50.178;8.370;2024-03-07T07:34:39;98780.78;;;2.44;100.00
18858;BME280;9558;50.178;8.370;2024-03-07T07:37:28;98781.25;;;2.62;100.00
18858;BME280;9558;50.178;8.370;2024-03-07T07:40:17;98782.09;;;2.73;100.00
18858;BME280;9558;50.178;8.370;2024-03-07T07:43:04;98781.09;;;2.87;100.00
18858;BME280;9558;50.178;8.370;2024-03-07T07:45:51;98778.72;;;3.08;100.00
18858;BME280;9558;50.178;8.370;2024-03-07T07:48:38;98782.00;;;3.22;100.00
18858;BME280;9558;50.178;8.370;2024-03-07T07:51:27;98781.69;;;3.38;100.00
18858;BME280;9558;50.178;8.370;2024-03-07T07:54:14;98787.28;;;3.77;100.00
18858;BME280;9558;50.178;8.370;2024-03-07T07:57:03;98781.47;;;4.09;100.00
18858;BME280;9558;50.178;8.370;2024-03-07T07:59:50;98782.22;;;4.76;100.00
18858;BME280;9558;50.178;8.370;2024-03-07T08:02:37;98779.50;;;5.31;100.00
18858;BME280;9558;50.178;8.370;2024-03-07T08:05:24;98781.22;;;6.03;100.00
18858;BME280;9558;50.178;8.370;2024-03-07T08:08:13;98777.38;;;6.58;91.68
18858;BME280;9558;50.178;8.370;2024-03-07T08:11:02;98773.66;;;7.39;98.59
18858;BME280;9558;50.178;8.370;2024-03-07T08:13:50;98780.81;;;7.83;95.08
18858;BME280;9558;50.178;8.370;2024-03-07T08:16:37;98781.72;;;8.65;86.32
18858;BME280;9558;50.178;8.370;2024-03-07T08:19:24;98773.31;;;9.25;74.68
18858;BME280;9558;50.178;8.370;2024-03-07T08:22:11;98774.78;;;9.89;79.95
18858;BME280;9558;50.178;8.370;2024-03-07T08:24:58;98766.66;;;10.18;66.19
18858;BME280;9558;50.178;8.370;2024-03-07T08:27:48;98770.50;;;10.98;70.00
18858;BME280;9558;50.178;8.370;2024-03-07T08:30:37;98768.53;;;11.24;68.65
18858;BME280;9558;50.178;8.370;2024-03-07T08:33:24;98767.84;;;11.39;63.70
18858;BME280;9558;50.178;8.370;2024-03-07T08:36:12;98774.59;;;11.56;62.99
18858;BME280;9558;50.178;8.370;2024-03-07T08:38:59;98778.66;;;12.07;67.25
18858;BME280;9558;50.178;8.370;2024-03-07T08:41:45;98762.72;;;12.41;60.12
18858;BME280;9558;50.178;8.370;2024-03-07T08:44:32;98771.53;;;12.64;57.76
18858;BME280;9558;50.178;8.370;2024-03-07T08:47:21;98765.72;;;13.00;59.36
18858;BME280;9558;50.178;8.370;2024-03-07T08:50:08;98763.06;;;13.08;59.30
18858;BME280;9558;50.178;8.370;2024-03-07T08:52:56;98759.81;;;13.06;58.69
18858;BME280;9558;50.178;8.370;2024-03-07T08:55:43;98752.69;;;12.85;55.62
18858;BME280;9558;50.178;8.370;2024-03-07T08:58:32;98756.34;;;12.75;55.56
18858;BME280;9558;50.178;8.370;2024-03-07T09:01:19;98754.81;;;12.81;59.61
18858;BME280;9558;50.178;8.370;2024-03-07T09:04:07;98756.38;;;12.67;59.92
18858;BME280;9558;50.178;8.370;2024-03-07T09:06:54;98758.38;;;12.42;56.52
18858;BME280;9558;50.178;8.370;2024-03-07T09:09:41;98756.03;;;11.84;57.33
18858;BME280;9558;50.178;8.370;2024-03-07T09:12:30;98757.75;;;11.52;59.04
18858;BME280;9558;50.178;8.370;2024-03-07T09:15:17;98765.94;;;11.24;59.97
18858;BME280;9558;50.178;8.370;2024-03-07T09:18:07;98757.22;;;11.01;60.85
18858;BME280;9558;50.178;8.370;2024-03-07T09:20:55;98758.03;;;10.77;61.87
18858;BME280;9558;50.178;8.370;2024-03-07T09:23:42;98759.91;;;10.42;62.64
18858;BME280;9558;50.178;8.370;2024-03-07T09:26:29;98749.34;;;10.18;62.55
18858;BME280;9558;50.178;8.370;2024-03-07T09:29:16;98746.13;;;9.74;63.30
18858;BME280;9558;50.178;8.370;2024-03-07T09:32:04;98750.09;;;9.60;65.00
18858;BME280;9558;50.178;8.370;2024-03-07T09:34:53;98747.88;;;9.39;66.55
18858;BME280;9558;50.178;8.370;2024-03-07T09:37:42;98742.63;;;9.22;65.19
18858;BME280;9558;50.178;8.370;2024-03-07T09:40:29;98755.59;;;9.04;65.58
18858;BME280;9558;50.178;8.370;2024-03-07T09:43:17;98741.03;;;8.77;66.43
18858;BME280;9558;50.178;8.370;2024-03-07T09:46:05;98744.94;;;8.63;66.16
18858;BME280;9558;50.178;8.370;2024-03-07T09:48:52;98746.81;;;8.43;67.45
18858;BME280;9558;50.178;8.370;2024-03-07T09:51:40;98747.78;;;8.24;67.32
18858;BME280;9558;50.178;8.370;2024-03-07T09:54:29;98749.97;;;8.19;69.23
18858;BME280;9558;50.178;8.370;2024-03-07T09:57:16;98755.50;;;8.24;70.31
18858;BME280;9558;50.178;8.370;2024-03-07T10:00:05;98754.47;;;8.17;70.30
18858;BME280;9558;50.178;8.370;2024-03-07T10:02:56;98758.03;;;8.06;70.99
18858;BME280;9558;50.178;8.370;2024-03-07T10:05:53;98752.00;;;7.97;69.82
18858;BME280;9558;50.178;8.370;2024-03-07T10:08:42;98762.91;;;7.81;70.22
18858;BME280;9558;50.178;8.370;2024-03-07T10:11:29;98756.28;;;7.78;70.87
18858;BME280;9558;50.178;8.370;2024-03-07T10:14:16;98754.06;;;7.56;71.53
18858;BME280;9558;50.178;8.370;2024-03-07T10:17:03;98754.38;;;7.43;73.12
18858;BME280;9558;50.178;8.370;2024-03-07T10:19:51;98755.22;;;7.43;74.63
18858;BME280;9558;50.178;8.370;2024-03-07T10:22:41;98757.38;;;7.38;74.81
18858;BME280;9558;50.178;8.370;2024-03-07T10:25:28;98757.53;;;7.27;77.04
18858;BME280;9558;50.178;8.370;2024-03-07T10:28:16;98755.78;;;7.37;74.77
18858;BME280;9558;50.178;8.370;2024-03-07T10:31:03;98752.81;;;7.22;75.41
18858;BME280;9558;50.178;8.370;2024-03-07T10:34:00;98752.03;;;7.22;77.60
18858;BME280;9558;50.178;8.370;2024-03-07T10:36:47;98744.94;;;7.24;77.09
18858;BME280;9558;50.178;8.370;2024-03-07T10:39:36;98745.13;;;7.13;75.46
18858;BME280;9558;50.178;8.370;2024-03-07T10:42:27;98744.16;;;7.14;74.54
18858;BME280;9558;50.178;8.370;2024-03-07T10:45:18;98727.66;;;7.06;75.81
18858;BME280;9558;50.178;8.370;2024-03-07T10:48:11;98735.25;;;7.08;76.83
18858;BME280;9558;50.178;8.370;2024-03-07T10:51:05;98732.25;;;7.13;78.38
18858;BME280;9558;50.178;8.370;2024-03-07T10:53:59;98722.72;;;7.23;77.99
18858;BME280;9558;50.178;8.370;2024-03-07T10:57:03;98733.28;;;7.30;79.89
18858;BME280;9558;50.178;8.370;2024-03-07T10:59:57;98724.56;;;7.50;76.75
18858;BME280;9558;50.178;8.370;2024-03-07T11:02:46;98727.66;;;7.54;79.01
18858;BME280;9558;50.178;8.370;2024-03-07T11:05:34;98718.50;;;7.69;78.90
18858;BME280;9558;50.178;8.370;2024-03-07T11:08:22;98721.19;;;7.77;76.60
18858;BME280;9558;50.178;8.370;2024-03-07T11:11:09;98717.88;;;7.85;77.33
18858;BME280;9558;50.178;8.370;2024-03-07T11:13:58;98711.63;;;7.88;75.84
18858;BME280;9558;50.178;8.370;2024-03-07T11:16:46;98712.88;;;7.84;75.76
18858;BME280;9558;50.178;8.370;2024-03-07T11:19:33;98712.56;;;7.69;77.59
18858;BME280;9558;50.178;8.370;2024-03-07T11:22:30;98704.75;;;7.78;78.17
18858;BME280;9558;50.178;8.370;2024-03-07T11:25:18;98697.81;;;7.89;78.03
18858;BME280;9558;50.178;8.370;2024-03-07T11:28:07;98695.00;;;8.00;78.14
18858;BME280;9558;50.178;8.370;2024-03-07T11:31:07;98693.03;;;8.12;78.33
18858;BME280;9558;50.178;8.370;2024-03-07T11:34:12;98698.13;;;8.40;78.94
18858;BME280;9558;50.178;8.370;2024-03-07T11:37:01;98689.16;;;8.62;77.05
18858;BME280;9558;50.178;8.370;2024-03-07T11:39:50;98696.06;;;8.79;76.33
18858;BME280;9558;50.178;8.370;2024-03-07T11:42:43;98679.00;;;8.87;76.35
18858;BME280;9558;50.178;8.370;2024-03-07T11:45:32;98687.81;;;9.02;75.32
18858;BME280;9558;50.178;8.370;2024-03-07T11:48:25;98678.50;;;9.09;74.38
18858;BME280;9558;50.178;8.370;2024-03-07T11:51:13;98669.06;;;9.00;72.10
18858;BME280;9558;50.178;8.370;2024-03-07T11:54:01;98664.03;;;8.90;74.94
18858;BME280;9558;50.178;8.370;2024-03-07T11:56:48;98662.94;;;9.01;73.52
18858;BME280;9558;50.178;8.370;2024-03-07T11:59:37;98657.16;;;9.07;73.97
18858;BME280;9558;50.178;8.370;2024-03-07T12:02:24;98656.16;;;9.00;73.01
18858;BME280;9558;50.178;8.370;2024-03-07T12:05:12;98658.16;;;9.06;72.92
18858;BME280;9558;50.178;8.370;2024-03-07T12:08:01;98652.84;;;9.08;73.66
18858;BME280;9558;50.178;8.370;2024-03-07T12:10:52;98642.03;;;9.12;73.27
18858;BME280;9558;50.178;8.370;2024-03-07T12:13:41;98631.91;;;9.27;74.26
18858;BME280;9558;50.178;8.370;2024-03-07T12:16:29;98625.31;;;9.33;74.01
18858;BME280;9558;50.178;8.370;2024-03-07T12:19:17;98627.34;;;9.47;73.26
18858;BME280;9558;50.178;8.370;2024-03-07T12:22:09;98630.25;;;9.52;71.33
18858;BME280;9558;50.178;8.370;2024-03-07T12:25:00;98621.19;;;9.48;71.80
18858;BME280;9558;50.178;8.370;2024-03-07T12:28:01;98618.00;;;9.55;72.51
18858;BME280;9558;50.178;8.370;2024-03-07T12:30:52;98617.00;;;9.56;72.93
18858;BME280;9558;50.178;8.370;2024-03-07T12:33:40;98628.66;;;9.60;70.76
18858;BME280;9558;50.178;8.370;2024-03-07T12:36:32;98614.72;;;9.36;69.20
18858;BME280;9558;50.178;8.370;2024-03-07T12:39:33;98610.97;;;9.30;68.72
18858;BME280;9558;50.178;8.370;2024-03-07T12:42:21;98613.09;;;9.35;69.83
18858;BME280;9558;50.178;8.370;2024-03-07T12:45:09;98604.34;;;9.28;71.03
18858;BME280;9558;50.178;8.370;2024-03-07T12:48:04;98602.38;;;9.22;71.03
18858;BME280;9558;50.178;8.370;2024-03-07T12:50:52;98605.28;;;9.27;71.75
18858;BME280;9558;50.178;8.370;2024-03-07T12:53:40;98600.81;;;9.29;72.51
18858;BME280;9558;50.178;8.370;2024-03-07T12:56:30;98596.47;;;9.38;72.50
18858;BME280;9558;50.178;8.370;2024-03-07T12:59:20;98602.06;;;9.33;72.99
18858;BME280;9558;50.178;8.370;2024-03-07T13:02:10;98601.31;;;9.41;71.05
18858;BME280;9558;50.178;8.370;2024-03-07T13:04:58;98578.09;;;9.49;72.93
18858;BME280;9558;50.178;8.370;2024-03-07T13:07:46;98590.34;;;9.47;70.37
18858;BME280;9558;50.178;8.370;2024-03-07T13:10:34;98591.16;;;9.47;71.80
18858;BME280;9558;50.178;8.370;2024-03-07T13:13:24;98585.31;;;9.37;70.94
18858;BME280;9558;50.178;8.370;2024-03-07T13:16:11;98583.28;;;9.14;72.79
18858;BME280;9558;50.178;8.370;2024-03-07T13:18:59;98585.91;;;9.23;72.62
18858;BME280;9558;50.178;8.370;2024-03-07T13:21:50;98571.13;;;8.98;71.03
18858;BME280;9558;50.178;8.370;2024-03-07T13:24:37;98588.09;;;9.01;72.07
18858;BME280;9558;50.178;8.370;2024-03-07T13:27:25;98580.97;;;8.95;72.88
18858;BME280;9558;50.178;8.370;2024-03-07T13:30:16;98583.72;;;8.93;74.18
18858;BME280;9558;50.178;8.370;2024-03-07T13:33:08;98577.13;;;8.99;72.12
18858;BME280;9558;50.178;8.370;2024-03-07T13:35:56;98568.13;;;9.11;74.64
18858;BME280;9558;50.178;8.370;2024-03-07T13:38:43;98567.03;;;9.22;74.36
18858;BME280;9558;50.178;8.370;2024-03-07T13:41:30;98567.84;;;9.23;72.81
18858;BME280;9558;50.178;8.370;2024-03-07T13:44:17;98567.50;;;9.26;71.21
18858;BME280;9558;50.178;8.370;2024-03-07T13:47:06;98562.69;;;9.31;71.31
18858;BME280;9558;50.178;8.370;2024-03-07T13:49:53;98554.16;;;9.30;71.51
18858;BME280;9558;50.178;8.370;2024-03-07T13:52:41;98556.06;;;9.28;70.22
18858;BME280;9558;50.178;8.370;2024-03-07T13:55:54;98555.91;;;9.22;70.93
18858;BME280;9558;50.178;8.370;2024-03-07T13:58:48;98550.25;;;9.26;68.75
18858;BME280;9558;50.178;8.370;2024-03-07T14:01:44;98555.53;;;9.08;69.95
18858;BME280;9558;50.178;8.370;2024-03-07T14:04:48;98549.38;;;9.01;71.39
18858;BME280;9558;50.178;8.370;2024-03-07T14:07:50;98550.47;;;8.98;70.40
18858;BME280;9558;50.178;8.370;2024-03-07T14:14:44;98545.44;;;8.89;72.18
18858;BME280;9558;50.178;8.370;2024-03-07T14:17:55;98538.03;;;8.94;72.43
18858;BME280;9558;50.178;8.370;2024-03-07T14:21:13;98536.78;;;8.98;73.13
18858;BME280;9558;50.178;8.370;2024-03-07T14:24:33;98531.13;;;9.03;73.47
18858;BME280;9558;50.178;8.370;2024-03-07T14:27:29;98538.72;;;9.04;73.47
18858;BME280;9558;50.178;8.370;2024-03-07T14:30:27;98536.50;;;9.09;73.45
18858;BME280;9558;50.178;8.370;2024-03-07T14:33:27;98529.50;;;9.02;74.16
18858;BME280;9558;50.178;8.370;2024-03-07T14:36:17;98536.34;;;9.11;73.81
18858;BME280;9558;50.178;8.370;2024-03-07T14:39:05;98524.50;;;8.92;74.08
18858;BME280;9558;50.178;8.370;2024-03-07T14:41:54;98535.81;;;8.99;74.76
18858;BME280;9558;50.178;8.370;2024-03-07T14:44:44;98522.91;;;8.99;75.09
18858;BME280;9558;50.178;8.370;2024-03-07T14:47:34;98524.50;;;8.92;76.70
18858;BME280;9558;50.178;8.370;2024-03-07T14:50:22;98528.72;;;9.01;75.44
18858;BME280;9558;50.178;8.370;2024-03-07T14:53:14;98525.97;;;9.03;74.71
18858;BME280;9558;50.178;8.370;2024-03-07T14:56:03;98522.91;;;9.07;75.27
18858;BME280;9558;50.178;8.370;2024-03-07T14:58:51;98520.19;;;9.09;74.25
18858;BME280;9558;50.178;8.370;2024-03-07T15:01:38;98516.47;;;9.03;75.81
18858;BME280;9558;50.178;8.370;2024-03-07T15:04:27;98523.41;;;9.11;74.44
18858;BME280;9558;50.178;8.370;2024-03-07T15:07:17;98530.34;;;9.02;75.04
18858;BME280;9558;50.178;8.370;2024-03-07T15:10:14;98522.09;;;8.98;74.84
18858;BME280;9558;50.178;8.370;2024-03-07T15:13:04;98519.00;;;8.95;75.12
18858;BME280;9558;50.178;8.370;2024-03-07T15:15:53;98514.13;;;8.84;74.24